• Join FlightAware (Why Join?)
  • Login
  • US Flag 
10:00PM EDT


 

Airport Tracker/Info


-or-


 

Live Flight TrackerFlight Track Log ✈ CHH7234 ✈ 26-Oct-2013 ✈ ZLIC / INC - ZBAA / PEK

Flight Track Log - Related Links

Times and Time Zones

All times are in EDT time to prevent confusion due to time zone crossing. See the CHH7234 flight status page for this flight to view local times or setup timezone preferences in your user account.

Time Position Orientation Groundspeed Altitude Reporting Facility
EDT Latitude Longitude Course Direction KTS MPH feet Rate Location/Type
05:21AM 38.3471 106.5035 74° East  Level Estimated
05:22AM 38.3713 106.6138 74° East  Level Estimated
05:23AM 38.3954 106.7242 74° East  Level Estimated
05:24AM 38.4194 106.8346 74° East  Level Estimated
05:25AM 38.4433 106.9451 75° East  Level Estimated
05:26AM 38.4671 107.0557 75° East  Level Estimated
05:27AM 38.4907 107.1663 75° East  Level Estimated
05:28AM 38.5143 107.2770 75° East  Level Estimated
05:29AM 38.5378 107.3878 75° East  Level Estimated
05:30AM 38.5612 107.4987 75° East  Level Estimated
05:31AM 38.5844 107.6096 75° East  Level Estimated
05:32AM 38.6076 107.7206 75° East  Level Estimated
05:33AM 38.6307 107.8317 75° East  Level Estimated
05:34AM 38.6536 107.9429 75° East  Level Estimated
05:35AM 38.6765 108.0541 75° East  Level Estimated
05:36AM 38.7008 108.1733 75° East  Level Estimated
05:37AM 38.7251 108.2927 75° East  Level Estimated
05:38AM 38.7492 108.4121 75° East  Level Estimated
05:39AM 38.7732 108.5316 76° East  Level Estimated
05:40AM 38.7971 108.6511 76° East  Level Estimated
05:41AM 38.8208 108.7708 76° East  Level Estimated
05:42AM 38.8444 108.8905 76° East  Level Estimated
05:43AM 38.8680 109.0103 76° East  Level Estimated
05:44AM 38.8913 109.1302 76° East  Level Estimated
05:45AM 38.9146 109.2502 76° East  Level Estimated
05:46AM 38.9377 109.3702 76° East  Level Estimated
05:47AM 38.9608 109.4903 76° East  Level Estimated
05:48AM 38.9837 109.6105 76° East  Level Estimated
05:49AM 39.0064 109.7308 76° East  Level Estimated
05:50AM 39.0291 109.8512 76° East  Level Estimated
05:51AM 39.0516 109.9716 76° East  Level Estimated
05:52AM 39.0740 110.0921 76° East  Level Estimated
05:53AM 39.0963 110.2127 77° East  Level Estimated
05:54AM 39.1184 110.3333 77° East  Level Estimated
05:55AM 39.1405 110.4541 77° East  Level Estimated
05:56AM 39.1624 110.5749 77° East  Level Estimated
05:57AM 39.1841 110.6958 77° East  Level Estimated
05:58AM 39.2058 110.8167 77° East  Level Estimated
05:59AM 39.2273 110.9378 77° East  Level Estimated
06:00AM 39.2487 111.0589 77° East  Level Estimated
06:01AM 39.2700 111.1801 77° East  Level Estimated
06:02AM 39.2911 111.3013 77° East  Level Estimated
06:03AM 39.3122 111.4226 77° East  Level Estimated
06:04AM 39.3331 111.5440 77° East  Level Estimated
06:05AM 39.3539 111.6655 77° East  Level Estimated
06:06AM 39.3745 111.7871 78° East  Level Estimated
06:07AM 39.3950 111.9087 78° East  Level Estimated
06:08AM 39.4154 112.0304 78° East  Level Estimated
06:09AM 39.4357 112.1521 78° East  Level Estimated
06:10AM 39.4558 112.2740 78° East  Level Estimated
06:11AM 39.4758 112.3959 78° East  Level Estimated
06:12AM 39.4957 112.5178 78° East  Level Estimated
06:13AM 39.5155 112.6399 78° East  Level Estimated
06:14AM 39.5351 112.7620 78° East  Level Estimated
06:14AM 40.3710 115.5130 78° East 400 460 14,500  Level FlightAware
06:15AM 39.5546 112.8842 78° East  Level Estimated
06:15AM 40.3220 115.5790 134° Southeast 399 459 14,300  Level FlightAware
06:15AM 40.2850 115.6350 131° Southeast 399 459 14,300  Level FlightAware
06:16AM 39.5740 113.0064 78° East  Level Estimated
06:16AM 40.2350 115.7090 131° Southeast 399 459 14,300  Level FlightAware
06:19AM 40.1858 115.9915 103° East  Level Estimated
06:19AM 40.0120 115.8060 103° East 315 362 11,900  Level FlightAware
06:20AM 40.1642 116.1142 103° East  Level Estimated
06:20AM 39.9350 115.8820 143° Southeast 309 356 11,800  Level FlightAware
06:20AM 39.9110 115.9070 141° Southeast 309 356 11,800 -720 Level FlightAware
06:21AM 39.8570 115.9600 143° Southeast 294 338 11,000 -1,140 Descending FlightAware
06:22AM 39.8190 115.9970 143° Southeast 285 328 10,300 -1,020 Descending FlightAware
06:22AM 39.7690 116.0460 143° Southeast 265 305 9,600 -600 Descending FlightAware
06:23AM 39.7430 116.0720 142° Southeast 249 287 9,600  Level FlightAware
06:23AM 39.7210 116.1140 124° Southeast 243 280 9,600  Level FlightAware
06:24AM 39.7180 116.1630 95° East 222 255 9,600 -240 Level FlightAware
06:25AM 39.7170 116.2150 91° East 218 251 9,300 -720 Descending FlightAware
06:25AM 39.7160 116.2640 92° East 217 250 8,700 -1,080 Descending FlightAware
06:26AM 39.7150 116.3060 92° East 215 247 8,100 -780 Descending FlightAware
06:27AM 39.7150 116.3660 90° East 213 245 7,700 -240 Descending FlightAware
06:27AM 39.7150 116.4340 90° East 214 246 7,700  Level FlightAware
06:28AM 39.7150 116.4690 90° East 214 246 7,700 -600 Level FlightAware
06:29AM 39.7150 116.5390 90° East 213 245 6,900 -960 Descending FlightAware
06:30AM 39.7210 116.5890 81° East 205 236 6,200 -1,020 Descending FlightAware
06:30AM 39.7560 116.6140 29° Northeast 199 229 5,500 -960 Descending FlightAware
06:31AM 39.7800 116.6180 North 197 227 5,100 -540 Descending FlightAware
06:32AM 39.8380 116.6110 355° North 192 221 4,700 -780 Descending FlightAware
06:32AM 39.8750 116.6050 353° North 200 230 3,800 -1,200 Descending FlightAware
06:33AM 39.9050 116.6010 354° North 200 230 3,300 -1,020 Descending FlightAware
06:34AM 39.9340 116.5960 352° North 200 230 2,700 -1,080 Descending FlightAware
06:34AM 39.9710 116.5900 353° North 182 209 2,000 -1,020 Descending FlightAware
06:35AM 40.0050 116.5850 354° North 159 183 1,300 -600 Descending FlightAware
06:35AM 40.0220 116.5820 352° North 159 183 1,300  Level FlightAware
06:39AM 40.0801 116.5846 North  Level Estimated
06:40AM 40.0801 116.5846 288° West  Level Estimated
06:41AM 40.0801 116.5846 288° West  Level Estimated
06:42AM 40.0801 116.5846 288° West  Level Estimated
06:43AM 40.0801 116.5846 288° West  Level Estimated
06:44AM 40.0801 116.5846 288° West  Level Estimated
06:45AM 40.0801 116.5846 288° West  Level Estimated